createdAt,value
2016-10-19T19:15:15.169Z,64.61
2016-10-19T19:15:27.292Z,64.9
2016-10-19T19:15:37.551Z,65.2
2016-10-19T19:15:54.303Z,64.8
2016-10-19T19:16:11.161Z,65.06
2016-10-19T19:16:28.111Z,64.77
2016-10-19T19:16:45.537Z,65.06
2016-10-19T19:17:02.276Z,65.09
2016-10-19T19:17:19.093Z,64.67
2016-10-19T19:17:35.836Z,64.67
2016-10-19T19:17:52.657Z,65.65
2016-10-19T19:18:24.620Z,65.75
2016-10-19T19:18:41.357Z,65.85
2016-10-19T19:18:58.080Z,65.36
2016-10-19T19:19:15.226Z,65.75
2016-10-19T19:19:32.140Z,65.85
2016-10-19T19:19:48.966Z,65.65
2016-10-19T19:20:06.278Z,65.45
2016-10-19T19:20:23.029Z,65.95
2016-10-19T19:20:39.831Z,65.78
2016-10-19T19:20:56.562Z,65.55
2016-10-19T19:21:13.316Z,65.55
2016-10-19T19:21:30.071Z,64.87
2016-10-19T19:21:46.825Z,64.77
2016-10-19T19:22:03.569Z,65.2
2016-10-19T19:22:20.295Z,65.13
2016-10-19T19:22:37.082Z,64.25
2016-10-19T19:22:53.847Z,64.34
2016-10-19T19:23:10.641Z,64.22
2016-10-19T19:23:27.418Z,64.34
2016-10-19T19:23:44.211Z,63.85
2016-10-19T19:24:01.546Z,64.18
2016-10-19T19:24:18.796Z,63.01
2016-10-19T19:24:35.548Z,62.22
2016-10-19T19:24:52.297Z,62.12
2016-10-19T19:25:09.053Z,62.58
2016-10-19T19:25:25.814Z,63.07
2016-10-19T19:25:42.608Z,62.78
2016-10-19T19:25:59.402Z,62.51
2016-10-19T19:26:16.143Z,62.51
2016-10-19T19:26:32.951Z,62.29
2016-10-19T19:26:49.690Z,62.22
2016-10-19T19:27:06.427Z,62.22
2016-10-19T19:27:23.239Z,61.93
2016-10-19T19:27:40.010Z,61.8
2016-10-19T19:27:56.751Z,61.73
2016-10-19T19:28:13.514Z,62.02
2016-10-19T19:28:30.245Z,62.09
2016-10-19T19:28:47.010Z,62.22
2016-10-19T19:29:03.761Z,61.9
2016-10-19T19:29:20.569Z,61.93
2016-10-19T19:29:37.388Z,62.51
2016-10-19T19:29:54.198Z,62.35
2016-10-19T19:30:10.957Z,62.71
2016-10-19T19:30:27.834Z,61.54
2016-10-19T19:30:44.604Z,61.27
2016-10-19T19:31:03.326Z,61.07
2016-10-19T19:31:20.111Z,60.78
2016-10-19T19:31:36.916Z,60.58
2016-10-19T19:31:53.708Z,61
2016-10-19T19:32:13.158Z,60.42
2016-10-19T19:32:29.931Z,60.71
2016-10-19T19:32:46.718Z,61.18
2016-10-19T19:33:04.013Z,60.61
2016-10-19T19:33:20.852Z,60.52
2016-10-19T19:33:37.684Z,61.07
2016-10-19T19:33:54.606Z,60.61
2016-10-19T19:34:11.418Z,60.58
2016-10-19T19:34:28.167Z,59.9
2016-10-19T19:34:44.943Z,59.8
2016-10-19T19:35:02.197Z,60.1
2016-10-19T19:35:18.974Z,59.31
2016-10-19T19:35:35.750Z,59.7
2016-10-19T19:35:52.529Z,59.5
2016-10-19T19:36:09.252Z,59.5
2016-10-19T19:36:25.995Z,59.7
2016-10-19T19:36:43.345Z,59.7
2016-10-19T19:37:00.096Z,59.53
2016-10-19T19:37:16.881Z,59.63
2016-10-19T19:37:33.624Z,59.41
2016-10-19T19:37:50.426Z,59.7
2016-10-19T19:38:07.167Z,59.61
2016-10-19T19:38:23.906Z,59.41
2016-10-19T19:38:40.717Z,59.9
2016-10-19T19:38:57.487Z,60.39
2016-10-19T19:39:14.296Z,60.36
2016-10-19T19:39:31.062Z,60.36
2016-10-19T19:39:47.816Z,61.05
2016-10-19T19:40:04.582Z,60.36
2016-10-19T19:40:21.363Z,60.36
2016-10-19T19:40:38.162Z,59.8
2016-10-19T19:40:54.970Z,59.31
2016-10-19T19:41:11.725Z,59.87
2016-10-19T19:41:28.475Z,59.9
2016-10-19T19:41:45.229Z,59.7
2016-10-19T19:42:01.994Z,59.87
2016-10-19T19:42:18.752Z,59.9
2016-10-19T19:42:35.507Z,59.7
2016-10-19T19:42:52.277Z,59.61
2016-10-19T19:43:09.038Z,59.53
2016-10-19T19:43:26.292Z,59.7
2016-10-19T19:43:43.052Z,59.44
2016-10-19T19:43:59.815Z,59.61
2016-10-19T19:44:16.563Z,59.53
2016-10-19T19:44:33.322Z,59.24
2016-10-19T19:44:50.582Z,59.44
2016-10-19T19:45:07.347Z,59.5
2016-10-19T19:45:24.112Z,59.7
2016-10-19T19:45:40.870Z,60.46
2016-10-19T19:45:57.634Z,60.49
2016-10-19T19:46:14.392Z,60.26
2016-10-19T19:46:31.669Z,60.29
2016-10-19T19:46:48.559Z,60.39
2016-10-19T19:47:05.477Z,60.49
2016-10-19T19:47:22.268Z,59.8
2016-10-19T19:47:39.018Z,59.8
2016-10-19T19:47:55.762Z,59.8
2016-10-19T19:48:12.535Z,59.61
2016-10-19T19:48:29.293Z,60.39
2016-10-19T19:48:46.031Z,60.29
2016-10-19T19:49:02.837Z,59.53
2016-10-19T19:49:19.811Z,59.05
2016-10-19T19:49:36.598Z,59.41
2016-10-19T19:49:53.352Z,58.92
2016-10-19T19:50:24.595Z,59.41
2016-10-19T19:50:41.354Z,59.48
2016-10-19T19:50:58.102Z,59.67
2016-10-19T19:51:14.845Z,59.64
2016-10-19T19:51:31.636Z,60.55
2016-10-19T19:51:48.413Z,59.84
2016-10-19T19:52:05.220Z,60.23
2016-10-19T19:52:21.990Z,60.16
2016-10-19T19:52:38.755Z,60.26
2016-10-19T19:52:55.509Z,60.26
2016-10-19T19:53:12.272Z,59.87
2016-10-19T19:53:29.032Z,60.26
2016-10-19T19:53:45.914Z,60.33
2016-10-19T19:54:02.666Z,60.33
2016-10-19T19:54:19.446Z,60.63
2016-10-19T19:54:36.245Z,60.33
2016-10-19T19:54:53.000Z,60.23
2016-10-19T19:55:09.748Z,60.52
2016-10-19T19:55:26.489Z,60.23
2016-10-19T19:55:43.231Z,59.74
2016-10-19T19:55:59.981Z,60.42
2016-10-19T19:56:16.733Z,60.33
2016-10-19T19:56:34.171Z,60.06
2016-10-19T19:56:50.957Z,60.46
2016-10-19T19:57:07.728Z,60.95
2016-10-19T19:57:24.499Z,60.33
2016-10-19T19:57:41.280Z,60.46
2016-10-19T19:57:58.034Z,60.52
2016-10-19T19:58:14.802Z,60.92
2016-10-19T19:58:31.609Z,60.65
2016-10-19T19:58:48.876Z,60.63
2016-10-19T19:59:05.614Z,60.75
2016-10-19T19:59:22.374Z,60.33
2016-10-19T19:59:39.366Z,60.82
2016-10-19T19:59:56.144Z,60.63
2016-10-19T20:00:13.409Z,60.69
2016-10-19T20:00:30.140Z,60.79
2016-10-19T20:00:46.902Z,61.21
2016-10-19T20:01:03.642Z,60.82
2016-10-19T20:01:20.449Z,60.52
2016-10-19T20:01:37.232Z,61.34
2016-10-19T20:01:53.993Z,60.63
2016-10-19T20:02:10.741Z,60.55
2016-10-19T20:02:27.470Z,60.55
2016-10-19T20:02:44.721Z,60.36
2016-10-19T20:03:01.472Z,60
2016-10-19T20:03:18.264Z,60.06
2016-10-19T20:03:35.008Z,60.06
2016-10-19T20:03:51.813Z,59.8
2016-10-19T20:04:08.607Z,59.8
2016-10-19T20:04:25.424Z,59.8
2016-10-19T20:04:42.192Z,59.63
2016-10-19T20:04:58.929Z,59.41
2016-10-19T20:05:15.693Z,58.85
2016-10-19T20:05:32.418Z,59.34
2016-10-19T20:05:49.165Z,58.62
2016-10-19T20:06:05.946Z,59.08
2016-10-19T20:06:22.718Z,59.31
2016-10-19T20:06:40.003Z,59.41
2016-10-19T20:06:56.786Z,59.41
2016-10-19T20:07:14.069Z,60.36
2016-10-19T20:07:31.382Z,60.36
2016-10-19T20:07:48.124Z,60.36
2016-10-19T20:08:04.932Z,60.29
2016-10-19T20:08:21.691Z,59.8
2016-10-19T20:08:38.464Z,59.8
2016-10-19T20:08:55.848Z,59.61
2016-10-19T20:09:13.141Z,59.44
2016-10-19T20:09:30.064Z,59.44
2016-10-19T20:09:46.837Z,59.44
2016-10-19T20:10:04.139Z,58.75
2016-10-19T20:10:20.882Z,58.53
2016-10-19T20:10:38.156Z,59.44
2016-10-19T20:10:54.912Z,59.44
2016-10-19T20:11:11.656Z,59.41
2016-10-19T20:11:28.408Z,59.41
2016-10-19T20:11:45.152Z,60.26
2016-10-19T20:12:01.926Z,60.55
2016-10-19T20:12:18.675Z,60.33
2016-10-19T20:12:35.406Z,60.52
2016-10-19T20:12:52.173Z,60.63
2016-10-19T20:13:08.903Z,60.13
2016-10-19T20:13:25.641Z,60.55
2016-10-19T20:13:42.411Z,60.26
2016-10-19T20:13:59.169Z,60.92
2016-10-19T20:14:15.962Z,60.82
2016-10-19T20:14:32.729Z,60.33
2016-10-19T20:14:49.519Z,61.02
2016-10-19T20:15:06.288Z,61.02
2016-10-19T20:15:23.113Z,61.31
2016-10-19T20:15:40.400Z,60.26
2016-10-19T20:15:57.143Z,59.84
2016-10-19T20:16:13.915Z,59.94
2016-10-19T20:16:30.666Z,60.52
2016-10-19T20:16:47.416Z,60.23
2016-10-19T20:17:04.675Z,60.55
2016-10-19T20:17:21.409Z,60.36
2016-10-19T20:17:38.180Z,59.94
2016-10-19T20:17:54.921Z,60.13
2016-10-19T20:18:11.682Z,60.13
2016-10-19T20:18:28.413Z,60.42
2016-10-19T20:18:45.177Z,60.46
2016-10-19T20:19:02.462Z,59.87
2016-10-19T20:19:19.207Z,59.55
2016-10-19T20:19:35.992Z,60.42
2016-10-19T20:19:52.780Z,60.92
2016-10-19T20:20:09.519Z,61.31
2016-10-19T20:20:26.266Z,60.33
2016-10-19T20:20:43.023Z,60.3
2016-10-19T20:20:59.767Z,60.52
2016-10-19T20:21:16.519Z,60.99
2016-10-19T20:21:33.249Z,60.89
2016-10-19T20:21:49.993Z,61.08
2016-10-19T20:22:06.797Z,61.47
2016-10-19T20:22:23.547Z,61.18
2016-10-19T20:22:40.310Z,61.18
2016-10-19T20:22:57.067Z,62.06
2016-10-19T20:23:13.829Z,61.47
2016-10-19T20:23:30.578Z,62.06
2016-10-19T20:23:47.340Z,61.57
2016-10-19T20:24:04.180Z,61.57
2016-10-19T20:24:20.958Z,61.38
2016-10-19T20:24:37.753Z,62.03
2016-10-19T20:24:54.593Z,62.32
2016-10-19T20:25:11.330Z,61.93
2016-10-19T20:25:28.075Z,61.93
2016-10-19T20:25:44.795Z,62
2016-10-19T20:26:01.548Z,62.62
2016-10-19T20:26:18.285Z,62.92
2016-10-19T20:26:35.021Z,62.52
2016-10-19T20:26:51.765Z,62.69
2016-10-19T20:27:08.541Z,63.08
2016-10-19T20:27:25.327Z,62.69
2016-10-19T20:27:42.071Z,62.98
2016-10-19T20:27:58.817Z,63.18
2016-10-19T20:28:16.132Z,62.88
2016-10-19T20:28:32.872Z,63.28
2016-10-19T20:28:49.619Z,64.06
2016-10-19T20:29:06.447Z,63.08
2016-10-19T20:29:23.190Z,63.01
2016-10-19T20:29:39.954Z,62.69
2016-10-19T20:29:56.740Z,63.01
2016-10-19T20:30:13.556Z,62.82
2016-10-19T20:30:30.346Z,63.01
2016-10-19T20:30:47.140Z,62.82
2016-10-19T20:31:03.896Z,62.82
2016-10-19T20:31:20.664Z,62.72
2016-10-19T20:31:37.402Z,62.72
2016-10-19T20:31:54.152Z,62.52
2016-10-19T20:32:10.878Z,62.92
2016-10-19T20:32:27.650Z,63.11
2016-10-19T20:32:44.476Z,63.08
2016-10-19T20:33:01.212Z,63.57
2016-10-19T20:33:18.444Z,63.76
2016-10-19T20:33:35.205Z,63.64
2016-10-19T20:33:52.007Z,63.93
2016-10-19T20:34:08.803Z,64.25
2016-10-19T20:34:25.568Z,63.73
2016-10-19T20:34:42.332Z,64.12
2016-10-19T20:34:59.058Z,64.22
2016-10-19T20:35:15.843Z,64.42
2016-10-19T20:35:32.576Z,64.51
2016-10-19T20:35:49.333Z,64.22
2016-10-19T20:36:06.075Z,64.51
2016-10-19T20:36:22.808Z,64.81
2016-10-19T20:36:39.637Z,64.51
2016-10-19T20:36:56.387Z,64.71
2016-10-19T20:37:13.124Z,64.32
2016-10-19T20:37:29.885Z,63.83
2016-10-19T20:37:46.672Z,63.73
2016-10-19T20:38:03.423Z,63.93
2016-10-19T20:38:20.164Z,63.54
2016-10-19T20:38:36.904Z,63.51
2016-10-19T20:38:53.643Z,64.32
2016-10-19T20:39:10.478Z,64.09
2016-10-19T20:39:27.220Z,63.9
2016-10-19T20:39:44.060Z,64.29
2016-10-19T20:40:00.802Z,64.22
2016-10-19T20:40:17.561Z,64.19
2016-10-19T20:40:34.313Z,64.19
2016-10-19T20:40:51.600Z,63.9
2016-10-19T20:41:08.358Z,64.48
2016-10-19T20:41:25.101Z,64
2016-10-19T20:41:41.900Z,64.19
2016-10-19T20:41:58.644Z,64.78
2016-10-19T20:42:15.438Z,64.58
2016-10-19T20:42:32.192Z,65.26
2016-10-19T20:42:48.928Z,64.87
2016-10-19T20:43:05.689Z,65.07
2016-10-19T20:43:22.436Z,64.58
2016-10-19T20:43:39.182Z,65.26
2016-10-19T20:43:55.915Z,64.87
2016-10-19T20:44:12.679Z,64.97
2016-10-19T20:44:29.486Z,65.07
2016-10-19T20:44:46.215Z,65.07
2016-10-19T20:45:02.947Z,64.78
2016-10-19T20:45:19.718Z,64.58
2016-10-19T20:45:36.478Z,64.29
2016-10-19T20:45:53.235Z,64.58
2016-10-19T20:46:09.985Z,64.39
2016-10-19T20:46:26.725Z,64.19
2016-10-19T20:46:43.483Z,64.39
2016-10-19T20:47:00.254Z,64.09
2016-10-19T20:47:16.991Z,64.06
2016-10-19T20:47:33.733Z,64.06
2016-10-19T20:47:50.488Z,64.45
2016-10-19T20:48:07.240Z,65.04
2016-10-19T20:48:24.000Z,64.94
2016-10-19T20:48:40.763Z,65.14
2016-10-19T20:48:57.523Z,64.75
2016-10-19T20:49:14.276Z,65.04
2016-10-19T20:49:31.014Z,65.23
2016-10-19T20:49:47.776Z,64.94
2016-10-19T20:50:04.588Z,65.04
2016-10-19T20:50:21.338Z,64.84
2016-10-19T20:50:38.108Z,64.65
2016-10-19T20:50:54.895Z,65.43
2016-10-19T20:51:11.653Z,65.53
2016-10-19T20:51:28.409Z,65.33
2016-10-19T20:51:45.167Z,64.75
2016-10-19T20:52:01.932Z,65.46
2016-10-19T20:52:20.074Z,64.55
2016-10-19T20:52:36.846Z,65.14
2016-10-19T20:52:53.593Z,64.45
2016-10-19T20:53:10.366Z,65.82
2016-10-19T20:53:27.131Z,65.53
2016-10-19T20:53:43.878Z,65.72
2016-10-19T20:54:01.179Z,65.33
2016-10-19T20:54:18.014Z,65.53
2016-10-19T20:54:34.780Z,65.92
2016-10-19T20:54:51.496Z,65.39
2016-10-19T20:55:08.262Z,65.04
2016-10-19T20:55:25.060Z,64.9
2016-10-19T20:55:41.899Z,65.59
2016-10-19T20:55:59.150Z,65.63
2016-10-19T20:56:15.898Z,65.2
2016-10-19T20:56:32.708Z,65.3
2016-10-19T20:56:50.074Z,64.9
2016-10-19T20:57:07.367Z,64.9
2016-10-19T20:57:24.117Z,65.3
2016-10-19T20:57:41.388Z,65.69
2016-10-19T20:57:58.124Z,65.39
2016-10-19T20:58:14.861Z,65.2
2016-10-19T20:58:31.630Z,65.3
2016-10-19T20:58:48.430Z,65.69
2016-10-19T20:59:05.205Z,65.59
2016-10-19T20:59:22.023Z,65.39
2016-10-19T20:59:38.784Z,65.39
2016-10-19T20:59:55.664Z,65.49
2016-10-19T21:00:12.406Z,65.36
2016-10-19T21:00:43.662Z,65.69
2016-10-19T21:01:00.447Z,65.69
2016-10-19T21:01:17.206Z,65.69
2016-10-19T21:01:33.974Z,65.98
2016-10-19T21:01:50.701Z,66.56
2016-10-19T21:02:07.456Z,66.47
2016-10-19T21:02:24.198Z,66.27
2016-10-19T21:02:41.496Z,65.56
2016-10-19T21:02:58.232Z,66.44
2016-10-19T21:03:14.973Z,65.49
2016-10-19T21:03:31.697Z,65.56
2016-10-19T21:03:49.011Z,66.53
2016-10-19T21:04:05.760Z,66.63
2016-10-19T21:04:22.759Z,66.14
2016-10-19T21:04:39.545Z,65.59
2016-10-19T21:04:56.283Z,66.47
2016-10-19T21:05:13.046Z,66.17
2016-10-19T21:05:29.803Z,66.56
2016-10-19T21:05:46.552Z,66.17
2016-10-19T21:06:03.310Z,66.27
2016-10-19T21:06:20.105Z,66.56
2016-10-19T21:06:37.381Z,67.64
2016-10-19T21:06:54.133Z,67.61
2016-10-19T21:07:10.896Z,67.32
2016-10-19T21:07:27.649Z,67.05
2016-10-19T21:07:44.396Z,67.41
2016-10-19T21:08:01.716Z,66.83
2016-10-19T21:08:18.478Z,66.96
2016-10-19T21:08:35.227Z,67.12
2016-10-19T21:08:51.975Z,67.15
2016-10-19T21:09:08.732Z,66.76
2016-10-19T21:09:25.563Z,67.22
2016-10-19T21:09:42.315Z,67.51
2016-10-19T21:09:59.094Z,67.35
2016-10-19T21:10:15.843Z,66.05
2016-10-19T21:10:32.575Z,66.56
2016-10-19T21:10:49.286Z,66.83
2016-10-19T21:11:06.050Z,67.12
2016-10-19T21:11:22.800Z,67.44
2016-10-19T21:11:39.555Z,67.44
2016-10-19T21:11:56.312Z,66.96
2016-10-19T21:12:13.056Z,66.86
2016-10-19T21:12:29.814Z,67.64
2016-10-19T21:12:46.583Z,67.54
2016-10-19T21:13:03.340Z,68.03
2016-10-19T21:13:20.611Z,68.1
2016-10-19T21:13:37.374Z,67.8
2016-10-19T21:13:54.120Z,67.8
2016-10-19T21:14:10.874Z,68.29
2016-10-19T21:14:27.639Z,68.29
2016-10-19T21:14:44.371Z,67.67
2016-10-19T21:15:01.139Z,67.9
2016-10-19T21:15:17.939Z,67.86
2016-10-19T21:15:34.704Z,67.9
2016-10-19T21:15:51.452Z,67.61
2016-10-19T21:16:08.231Z,67.71
2016-10-19T21:16:24.968Z,68.1
2016-10-19T21:16:41.750Z,68.49
2016-10-19T21:16:58.532Z,68.19
2016-10-19T21:17:15.294Z,68.26
2016-10-19T21:17:32.047Z,68.39
2016-10-19T21:17:48.818Z,68.1
2016-10-19T21:18:06.050Z,68.29
2016-10-19T21:18:22.867Z,68.1
2016-10-19T21:18:39.769Z,68.59
2016-10-19T21:19:11.099Z,68.19
2016-10-19T21:19:27.932Z,68.06
2016-10-19T21:19:44.813Z,68.39
2016-10-19T21:20:01.574Z,68.16
2016-10-19T21:20:18.346Z,68.39
2016-10-19T21:20:35.094Z,68.59
2016-10-19T21:20:51.880Z,69.04
2016-10-19T21:21:08.638Z,69.72
2016-10-19T21:21:25.425Z,69.72
2016-10-19T21:21:42.207Z,68.84
2016-10-19T21:21:59.462Z,68.84
2016-10-19T21:22:16.209Z,68.84
2016-10-19T21:22:32.967Z,69.04
2016-10-19T21:22:49.703Z,68.84
2016-10-19T21:23:06.446Z,69.13
2016-10-19T21:23:23.213Z,69.13
2016-10-19T21:23:39.976Z,69.92
2016-10-19T21:23:56.736Z,70.07
2016-10-19T21:24:13.477Z,69.72
2016-10-19T21:24:30.897Z,70.01
2016-10-19T21:24:47.705Z,69.82
2016-10-19T21:25:04.653Z,70.01
2016-10-19T21:25:21.425Z,70.11
2016-10-19T21:25:38.192Z,69.72
2016-10-19T21:25:56.013Z,69.82
2016-10-19T21:26:12.797Z,70.01
2016-10-19T21:26:29.551Z,69.72
2016-10-19T21:26:46.304Z,69.59
2016-10-19T21:27:03.040Z,70.27
2016-10-19T21:27:19.805Z,70.07
2016-10-19T21:27:36.578Z,70.47
2016-10-19T21:27:53.341Z,70.07
2016-10-19T21:28:10.089Z,69.59
2016-10-19T21:28:26.834Z,70.17
2016-10-19T21:28:43.588Z,70.17
2016-10-19T21:29:00.320Z,70.76
2016-10-19T21:29:17.064Z,70.76
2016-10-19T21:29:33.931Z,70.07
2016-10-19T21:29:50.669Z,70.27
2016-10-19T21:30:07.444Z,70.47
2016-10-19T21:30:24.225Z,69.88
2016-10-19T21:30:41.258Z,70.07
2016-10-19T21:30:58.766Z,69.68
2016-10-19T21:31:15.623Z,69.98
2016-10-19T21:31:32.391Z,69.98
2016-10-19T21:31:49.191Z,70.17
2016-10-19T21:32:06.502Z,69.88
2016-10-19T21:32:37.745Z,69.88
2016-10-19T21:32:54.518Z,69.68
2016-10-19T21:33:11.750Z,69.68
2016-10-19T21:33:28.974Z,69.78
2016-10-19T21:33:45.907Z,69.68
2016-10-19T21:34:03.011Z,69.98
2016-10-19T21:34:19.928Z,69.88
2016-10-19T21:34:36.676Z,70.07
2016-10-19T21:34:53.424Z,69.88
2016-10-19T21:35:10.172Z,69.98
2016-10-19T21:35:26.936Z,69.88
2016-10-19T21:35:43.733Z,69.88
2016-10-19T21:36:00.513Z,69.68
2016-10-19T21:36:17.233Z,69.88
2016-10-19T21:36:33.996Z,70.17
2016-10-19T21:36:50.749Z,70.07
2016-10-19T21:37:07.512Z,69.98
2016-10-19T21:37:24.257Z,70.95
2016-10-19T21:37:41.082Z,70.76
2016-10-19T21:37:57.894Z,70.43
2016-10-19T21:38:14.627Z,70.66
2016-10-19T21:38:31.378Z,70.47
2016-10-19T21:38:48.844Z,70.47
2016-10-19T21:39:05.608Z,70.86
2016-10-19T21:39:22.359Z,71.25
2016-10-19T21:39:39.208Z,70.76
2016-10-19T21:39:55.939Z,70.86
2016-10-19T21:40:12.659Z,71.01
2016-10-19T21:40:29.396Z,71.25
2016-10-19T21:40:46.177Z,71.15
2016-10-19T21:41:02.928Z,71.54
2016-10-19T21:41:19.976Z,71.54
2016-10-19T21:41:37.299Z,71.64
2016-10-19T21:41:54.602Z,71.54
2016-10-19T21:42:12.124Z,71.89
2016-10-19T21:42:28.880Z,71.99
2016-10-19T21:42:45.626Z,72.12
2016-10-19T21:43:02.358Z,72.02
2016-10-19T21:43:19.112Z,71.89
2016-10-19T21:43:35.876Z,71.83
2016-10-19T21:43:52.614Z,72.19
2016-10-19T21:44:09.354Z,72.67
2016-10-19T21:44:26.584Z,72.38
2016-10-19T21:44:43.331Z,72.57
2016-10-19T21:45:00.090Z,72.77
2016-10-19T21:45:17.042Z,72.86
2016-10-19T21:45:33.793Z,72.67
2016-10-19T21:45:50.561Z,72.57
2016-10-19T21:46:07.366Z,72.86
2016-10-19T21:46:24.127Z,73.32
2016-10-19T21:46:40.921Z,73.06
2016-10-19T21:46:57.686Z,73.35
2016-10-19T21:47:14.443Z,73.06
2016-10-19T21:47:31.204Z,73.06
2016-10-19T21:47:47.953Z,72.57
2016-10-19T21:48:04.735Z,72.96
2016-10-19T21:48:21.505Z,73.06
2016-10-19T21:48:38.284Z,73.06
2016-10-19T21:48:55.035Z,73.06
2016-10-19T21:49:11.796Z,73.16
2016-10-19T21:49:28.544Z,72.96
2016-10-19T21:49:45.315Z,72.96
2016-10-19T21:50:02.110Z,73.25
2016-10-19T21:50:18.885Z,73.06
2016-10-19T21:50:35.627Z,73.35
2016-10-19T21:51:06.885Z,73.35
2016-10-19T21:51:23.615Z,73.55
2016-10-19T21:51:40.352Z,73.35
2016-10-19T21:51:57.147Z,73.74
2016-10-19T21:52:13.916Z,73.65
2016-10-19T21:52:30.679Z,73.94
2016-10-19T21:52:47.449Z,73.65
2016-10-19T21:53:04.208Z,73.94
2016-10-19T21:53:20.951Z,73.16
2016-10-19T21:53:37.716Z,73.32
2016-10-19T21:53:54.561Z,73.71
2016-10-19T21:54:11.366Z,73.55
2016-10-19T21:54:28.148Z,73.55
2016-10-19T21:54:45.101Z,73.45
2016-10-19T21:55:01.888Z,73.65
2016-10-19T21:55:18.664Z,73.55
2016-10-19T21:55:35.446Z,73.41
2016-10-19T21:55:52.213Z,73.55
2016-10-19T21:56:08.976Z,73.84
2016-10-19T21:56:26.279Z,73.41
2016-10-19T21:56:43.063Z,73.65
2016-10-19T21:56:59.860Z,74.13
2016-10-19T21:57:16.624Z,73.65
2016-10-19T21:57:33.385Z,73.71
2016-10-19T21:57:50.865Z,73.9
2016-10-19T21:58:07.641Z,73.9
2016-10-19T21:58:24.385Z,74.04
2016-10-19T21:58:41.132Z,73.65
2016-10-19T21:58:57.880Z,73.55
2016-10-19T21:59:14.641Z,73.84
2016-10-19T21:59:31.402Z,73.9
2016-10-19T21:59:48.160Z,74.04
2016-10-19T22:00:04.917Z,74
2016-10-19T22:00:21.689Z,74.29
2016-10-19T22:00:38.440Z,74.13
2016-10-19T22:00:55.180Z,73.9
2016-10-19T22:01:12.420Z,74.72
2016-10-19T22:01:29.157Z,73.74
2016-10-19T22:01:45.899Z,74.13
2016-10-19T22:02:02.653Z,74.43
2016-10-19T22:02:19.426Z,75.07
2016-10-19T22:02:36.173Z,74.78
2016-10-19T22:02:52.949Z,74.1
2016-10-19T22:03:09.687Z,74.58
2016-10-19T22:03:26.438Z,74.58
2016-10-19T22:03:43.167Z,74.87
2016-10-19T22:03:59.939Z,75.26
2016-10-19T22:04:16.693Z,74.97
2016-10-19T22:04:33.975Z,74.87
2016-10-19T22:04:50.772Z,74.87
2016-10-19T22:05:07.557Z,74.97
2016-10-19T22:05:24.297Z,74.87
2016-10-19T22:05:41.070Z,74.87
2016-10-19T22:05:57.870Z,75.16
2016-10-19T22:06:14.617Z,75.36
2016-10-19T22:06:31.342Z,74.87
2016-10-19T22:06:48.112Z,74.87
2016-10-19T22:07:04.864Z,74.97
2016-10-19T22:07:21.622Z,75.16
2016-10-19T22:07:38.368Z,75.26
2016-10-19T22:07:55.150Z,75.26
2016-10-19T22:08:11.900Z,75.07
2016-10-19T22:08:28.674Z,75.07
2016-10-19T22:08:45.464Z,75.26
2016-10-19T22:09:02.201Z,75.26
2016-10-19T22:09:18.949Z,74.97
2016-10-19T22:09:35.695Z,75.07
2016-10-19T22:09:52.559Z,75.23
2016-10-19T22:10:09.350Z,75.46
2016-10-19T22:10:26.615Z,75.56
2016-10-19T22:10:44.072Z,74.97
2016-10-19T22:11:00.800Z,75.26
2016-10-19T22:11:17.528Z,75.26
2016-10-19T22:11:34.285Z,74.97
2016-10-19T22:11:51.021Z,75.16
2016-10-19T22:12:07.751Z,75.16
2016-10-19T22:12:25.059Z,75.56
2016-10-19T22:12:41.835Z,75.46
2016-10-19T22:12:58.668Z,75.36
2016-10-19T22:13:15.376Z,76.14
2016-10-19T22:13:32.135Z,76.14
2016-10-19T22:13:48.899Z,76.34
2016-10-19T22:14:05.660Z,75.65
2016-10-19T22:14:22.389Z,75.36
2016-10-19T22:14:39.137Z,75.95
2016-10-19T22:14:55.868Z,76.04
2016-10-19T22:15:12.621Z,75.85
2016-10-19T22:15:29.379Z,75.85
2016-10-19T22:15:46.258Z,75.07
2016-10-19T22:16:03.016Z,75.36
2016-10-19T22:16:19.756Z,75.56
2016-10-19T22:16:36.498Z,75.07
2016-10-19T22:16:53.249Z,75.07
2016-10-19T22:17:10.276Z,76.04
2016-10-19T22:17:27.031Z,75.95
2016-10-19T22:17:43.841Z,75.95
2016-10-19T22:18:00.618Z,76.1
2016-10-19T22:18:17.907Z,76.04
2016-10-19T22:18:34.703Z,76.14
2016-10-19T22:18:51.509Z,76.14
2016-10-19T22:19:08.268Z,74.97
2016-10-19T22:19:24.998Z,74.78
2016-10-19T22:19:41.785Z,74.29
2016-10-19T22:19:58.598Z,75.26
2016-10-19T22:20:15.350Z,75.03
2016-10-19T22:20:32.130Z,75.03
2016-10-19T22:20:48.920Z,74.87
2016-10-19T22:21:05.684Z,75.32
2016-10-19T22:21:22.507Z,76.04
2016-10-19T22:21:39.780Z,75.91
2016-10-19T22:21:56.534Z,76.04
2016-10-19T22:22:13.279Z,74.97
2016-10-19T22:22:30.045Z,75.32
2016-10-19T22:22:46.878Z,75.62
2016-10-19T22:23:03.671Z,75.36
2016-10-19T22:23:20.435Z,76.1
2016-10-19T22:23:37.227Z,75.91
2016-10-19T22:23:54.032Z,76.5
2016-10-19T22:24:10.800Z,76.59
2016-10-19T22:24:27.552Z,76.53
2016-10-19T22:24:44.280Z,76.3
2016-10-19T22:25:01.173Z,75.42
2016-10-19T22:25:17.909Z,75.13
2016-10-19T22:25:34.677Z,75.52
2016-10-19T22:25:51.441Z,75.62
2016-10-19T22:26:08.187Z,75.32
2016-10-19T22:26:24.958Z,75.23
2016-10-19T22:26:41.754Z,75.32
2016-10-19T22:26:58.568Z,75.42
2016-10-19T22:27:15.401Z,75.32
2016-10-19T22:27:32.165Z,75.62
2016-10-19T22:27:48.926Z,75.32
2016-10-19T22:28:05.701Z,75.13
2016-10-19T22:28:22.478Z,75.03
2016-10-19T22:28:39.228Z,75.32
2016-10-19T22:28:56.507Z,75.42
2016-10-19T22:29:13.780Z,75.23
2016-10-19T22:29:30.578Z,74.84
2016-10-19T22:29:47.360Z,75.03
2016-10-19T22:30:04.111Z,75.03
2016-10-19T22:30:20.884Z,75.03
2016-10-19T22:30:37.636Z,75.91
2016-10-19T22:30:54.382Z,75.13
2016-10-19T22:31:11.144Z,75.42
2016-10-19T22:31:27.914Z,75.71
2016-10-19T22:31:44.686Z,75.52
2016-10-19T22:32:01.482Z,75.42
2016-10-19T22:32:18.234Z,75.42
2016-10-19T22:32:34.983Z,75.42
2016-10-19T22:32:51.742Z,75.03
2016-10-19T22:33:08.519Z,74.93
2016-10-19T22:33:25.284Z,74.84
2016-10-19T22:33:42.062Z,74.84
2016-10-19T22:33:58.824Z,75.03
2016-10-19T22:34:15.580Z,74.84
2016-10-19T22:34:32.340Z,74.93
2016-10-19T22:34:49.095Z,75.23
2016-10-19T22:35:05.888Z,74.55
2016-10-19T22:35:22.646Z,74.06
2016-10-19T22:35:39.399Z,74.06
2016-10-19T22:35:56.153Z,74.93
2016-10-19T22:36:12.893Z,73.77
2016-10-19T22:36:29.651Z,72.8
2016-10-19T22:36:46.393Z,72.7
2016-10-19T22:37:03.137Z,72.89
2016-10-19T22:37:19.888Z,74.26
2016-10-19T22:37:36.691Z,75.03
2016-10-19T22:37:53.463Z,75.32
2016-10-19T22:38:10.206Z,75.52
2016-10-19T22:38:26.943Z,75.52
2016-10-19T22:38:43.707Z,74.84
2016-10-19T22:39:00.516Z,74.06
2016-10-19T22:39:17.255Z,74.74
2016-10-19T22:39:34.038Z,75.23
2016-10-19T22:39:51.304Z,74.45
2016-10-19T22:40:08.161Z,73.57
2016-10-19T22:40:24.953Z,74.06
2016-10-19T22:40:41.691Z,74.26
2016-10-19T22:40:58.426Z,74.45
2016-10-19T22:41:15.693Z,73.86
2016-10-19T22:41:32.451Z,73.96
2016-10-19T22:41:49.231Z,74.55
2016-10-19T22:42:06.474Z,74.06
2016-10-19T22:42:23.736Z,73.96
2016-10-19T22:42:40.543Z,74.93
2016-10-19T22:42:57.316Z,74.55
2016-10-19T22:43:14.089Z,73.67
2016-10-19T22:43:30.862Z,73.86
2016-10-19T22:43:47.626Z,73.47
2016-10-19T22:44:04.401Z,73.47
2016-10-19T22:44:21.704Z,73.57
2016-10-19T22:44:38.519Z,73.28
2016-10-19T22:44:55.259Z,73.77
2016-10-19T22:45:12.013Z,73.96
2016-10-19T22:45:28.748Z,73.86
2016-10-19T22:45:45.517Z,73.57
2016-10-19T22:46:02.767Z,74.06
2016-10-19T22:46:19.528Z,73.96
2016-10-19T22:46:36.318Z,73.77
2016-10-19T22:46:53.118Z,74.45
2016-10-19T22:47:09.855Z,74.55
2016-10-19T22:47:26.608Z,74.45
2016-10-19T22:47:43.468Z,74.06
2016-10-19T22:48:00.423Z,74.06
2016-10-19T22:48:17.197Z,72.89
2016-10-19T22:48:33.963Z,72.99
2016-10-19T22:48:50.698Z,72.99
2016-10-19T22:49:07.988Z,72.99
2016-10-19T22:49:24.730Z,73.67
2016-10-19T22:49:41.474Z,74.26
2016-10-19T22:49:58.239Z,74.26
2016-10-19T22:50:15.498Z,74.45
2016-10-19T22:50:46.739Z,74.35
2016-10-19T22:51:03.586Z,74.45
2016-10-19T22:51:21.002Z,74.06
2016-10-19T22:51:37.896Z,74.45
2016-10-19T22:51:54.670Z,74.74
2016-10-19T22:52:11.419Z,74.55
2016-10-19T22:52:28.185Z,74.06
2016-10-19T22:52:45.440Z,73.77
2016-10-19T22:53:02.171Z,74.35
2016-10-19T22:53:18.920Z,74.41
2016-10-19T22:53:35.713Z,74.74
2016-10-19T22:53:52.472Z,74.06
2016-10-19T22:54:09.239Z,74.84